createdAt,value
2022-08-03T00:01:32.490Z,20.37
2022-08-03T00:03:59.726Z,20.27
2022-08-03T00:06:26.799Z,19.95
2022-08-03T00:08:53.733Z,20.03
2022-08-03T00:11:20.920Z,20.24
2022-08-03T00:13:48.120Z,20.23
2022-08-03T00:16:15.514Z,20.11
2022-08-03T00:18:42.523Z,20.11
2022-08-03T00:21:09.849Z,20.00
2022-08-03T00:23:51.921Z,19.91
2022-08-03T00:26:22.997Z,20.05
2022-08-03T00:28:50.380Z,20.09
2022-08-03T00:31:23.051Z,19.75
2022-08-03T00:34:04.546Z,19.91
2022-08-03T00:36:33.107Z,19.94
2022-08-03T00:39:00.311Z,19.96
2022-08-03T00:41:27.392Z,19.75
2022-08-03T00:43:54.328Z,19.76
2022-08-03T00:46:22.581Z,19.43
2022-08-03T00:48:51.004Z,19.85
2022-08-03T00:51:19.686Z,19.78
2022-08-03T00:53:46.672Z,19.83
2022-08-03T00:56:17.737Z,19.58
2022-08-03T00:58:46.507Z,19.77
2022-08-03T01:01:14.783Z,19.55
2022-08-03T01:03:42.261Z,19.30
2022-08-03T01:06:23.325Z,18.35
2022-08-03T01:09:07.252Z,19.71
2022-08-03T01:11:59.981Z,19.26
2022-08-03T01:14:34.184Z,19.50
2022-08-03T01:17:24.327Z,19.59
2022-08-03T01:20:02.253Z,19.03
2022-08-03T01:22:55.578Z,19.51
2022-08-03T01:25:40.364Z,19.42
2022-08-03T01:28:25.309Z,18.92
2022-08-03T01:30:56.653Z,19.22
2022-08-03T01:33:33.035Z,19.29
2022-08-03T01:36:03.552Z,19.33
2022-08-03T01:38:49.724Z,19.31
2022-08-03T01:41:25.142Z,19.31
2022-08-03T01:44:26.792Z,19.22
2022-08-03T01:46:47.762Z,19.22
2022-08-03T01:49:17.741Z,19.04
2022-08-03T01:51:58.456Z,19.16
2022-08-03T01:54:32.987Z,19.17
2022-08-03T01:57:00.102Z,18.61
2022-08-03T01:59:30.603Z,18.91
2022-08-03T02:02:16.076Z,18.37
2022-08-03T02:04:49.184Z,19.07
2022-08-03T02:07:17.299Z,18.58
2022-08-03T02:09:47.035Z,18.98
2022-08-03T02:12:15.545Z,19.09
2022-08-03T02:15:03.615Z,18.91
2022-08-03T02:17:38.683Z,19.07
2022-08-03T02:20:12.456Z,18.97
2022-08-03T02:22:44.646Z,18.85
2022-08-03T02:25:15.618Z,19.03
2022-08-03T02:28:06.552Z,19.06
2022-08-03T02:30:38.743Z,18.96
2022-08-03T02:33:10.258Z,18.52
2022-08-03T02:35:38.247Z,18.85
2022-08-03T02:38:08.488Z,18.91
2022-08-03T02:40:36.926Z,18.95
2022-08-03T02:43:08.389Z,18.80
2022-08-03T02:45:45.914Z,18.94
2022-08-03T02:48:18.323Z,18.78
2022-08-03T02:50:46.090Z,18.76
2022-08-03T02:53:14.526Z,18.80
2022-08-03T02:55:43.168Z,18.82
2022-08-03T02:58:14.172Z,18.91
2022-08-03T03:00:44.158Z,18.96
2022-08-03T03:03:12.371Z,18.49
2022-08-03T03:05:54.682Z,18.86
2022-08-03T03:08:28.870Z,18.89
2022-08-03T03:11:01.694Z,19.03
2022-08-03T03:13:30.383Z,18.57
2022-08-03T03:16:01.639Z,18.66
2022-08-03T03:18:29.502Z,18.59
2022-08-03T03:20:57.813Z,19.19
2022-08-03T03:23:26.355Z,19.26
2022-08-03T03:25:56.085Z,19.37
2022-08-03T03:28:24.899Z,18.94
2022-08-03T03:30:53.470Z,19.57
2022-08-03T03:33:22.392Z,19.09
2022-08-03T03:35:50.243Z,19.64
2022-08-03T03:38:17.949Z,19.40
2022-08-03T03:40:45.327Z,19.63
2022-08-03T03:43:13.301Z,19.50
2022-08-03T03:45:43.655Z,19.23
2022-08-03T03:48:11.432Z,19.76
2022-08-03T03:50:41.697Z,19.52
2022-08-03T03:53:13.638Z,20.11
2022-08-03T03:55:59.594Z,19.76
2022-08-03T03:58:28.429Z,20.32
2022-08-03T04:00:55.641Z,20.37
2022-08-03T04:03:23.264Z,20.46
2022-08-03T04:06:08.850Z,20.34
2022-08-03T04:08:54.596Z,20.43
2022-08-03T04:11:38.801Z,20.60
2022-08-03T04:14:11.020Z,20.76
2022-08-03T04:16:45.167Z,20.66
2022-08-03T04:19:22.606Z,20.95
2022-08-03T04:21:56.891Z,20.60
2022-08-03T04:24:27.258Z,20.95
2022-08-03T04:26:57.317Z,20.97
2022-08-03T04:29:26.728Z,21.17
2022-08-03T04:31:55.352Z,21.13
2022-08-03T04:34:23.705Z,20.88
2022-08-03T04:36:55.344Z,21.40
2022-08-03T04:39:27.806Z,21.37
2022-08-03T04:42:04.325Z,21.51
2022-08-03T04:44:41.888Z,21.48
2022-08-03T04:47:09.031Z,21.67
2022-08-03T04:49:40.440Z,21.63
2022-08-03T04:52:08.817Z,21.38
2022-08-03T04:54:50.036Z,21.70
2022-08-03T04:57:22.280Z,21.70
2022-08-03T05:00:01.288Z,21.61
2022-08-03T05:02:33.829Z,22.19
2022-08-03T05:05:00.989Z,22.29
2022-08-03T05:07:35.777Z,22.28
2022-08-03T05:10:15.954Z,22.47
2022-08-03T05:12:45.914Z,22.15
2022-08-03T05:15:13.292Z,22.61
2022-08-03T05:17:40.639Z,22.37
2022-08-03T05:20:08.262Z,22.85
2022-08-03T05:22:35.203Z,22.62
2022-08-03T05:25:03.061Z,22.67
2022-08-03T05:27:30.656Z,22.81
2022-08-03T05:30:27.304Z,23.24
2022-08-03T05:32:44.787Z,22.97
2022-08-03T05:35:55.667Z,23.31
2022-08-03T05:37:58.889Z,23.30
2022-08-03T05:40:25.895Z,23.16
2022-08-03T05:42:54.056Z,23.45
2022-08-03T05:45:26.623Z,23.71
2022-08-03T05:47:55.353Z,23.55
2022-08-03T05:50:22.393Z,23.90
2022-08-03T05:52:49.489Z,23.85
2022-08-03T05:55:17.178Z,23.70
2022-08-03T05:57:46.617Z,24.04
2022-08-03T06:00:14.037Z,23.87
2022-08-03T06:02:43.199Z,24.15
2022-08-03T06:05:10.915Z,24.36
2022-08-03T06:07:38.361Z,24.39
2022-08-03T06:10:35.635Z,24.18
2022-08-03T06:12:53.651Z,24.50
2022-08-03T06:15:21.032Z,24.79
2022-08-03T06:17:50.027Z,24.85
2022-08-03T06:20:18.816Z,25.01
2022-08-03T06:22:50.718Z,25.08
2022-08-03T06:25:21.386Z,25.10
2022-08-03T06:27:48.493Z,25.20
2022-08-03T06:30:21.053Z,25.42
2022-08-03T06:32:52.218Z,25.72
2022-08-03T06:35:20.190Z,26.89
2022-08-03T06:37:49.336Z,28.16
2022-08-03T06:40:21.900Z,29.26
2022-08-03T06:42:51.787Z,29.68
2022-08-03T06:45:18.845Z,29.56
2022-08-03T06:47:45.970Z,29.16
2022-08-03T06:50:16.945Z,28.91
2022-08-03T06:52:45.492Z,27.99
2022-08-03T06:55:12.543Z,28.27
2022-08-03T06:57:39.507Z,27.97
2022-08-03T07:00:12.283Z,27.76
2022-08-03T07:02:40.129Z,27.99
2022-08-03T07:05:08.422Z,27.99
2022-08-03T07:07:35.537Z,27.89
2022-08-03T07:10:02.632Z,27.55
2022-08-03T07:12:31.302Z,27.76
2022-08-03T07:15:01.699Z,27.67
2022-08-03T07:17:34.792Z,27.66
2022-08-03T07:20:03.876Z,27.23
2022-08-03T07:22:31.018Z,27.63
2022-08-03T07:24:58.794Z,27.80
2022-08-03T07:27:29.949Z,27.45
2022-08-03T07:29:58.590Z,27.60
2022-08-03T07:32:26.147Z,26.99
2022-08-03T07:34:58.336Z,27.41
2022-08-03T07:37:28.213Z,27.05
2022-08-03T07:39:55.152Z,27.87
2022-08-03T07:42:23.514Z,27.75
2022-08-03T07:44:50.591Z,27.76
2022-08-03T07:47:23.155Z,27.67
2022-08-03T07:49:50.538Z,27.84
2022-08-03T07:52:36.221Z,27.92
2022-08-03T07:55:04.167Z,27.53
2022-08-03T07:57:31.091Z,27.75
2022-08-03T08:00:01.602Z,27.88
2022-08-03T08:02:39.763Z,28.24
2022-08-03T08:05:07.389Z,28.34
2022-08-03T08:07:34.460Z,28.54
2022-08-03T08:10:01.593Z,28.33
2022-08-03T08:12:30.568Z,28.31
2022-08-03T08:14:57.571Z,28.20
2022-08-03T08:17:24.855Z,28.74
2022-08-03T08:19:53.296Z,28.66
2022-08-03T08:22:30.216Z,28.72
2022-08-03T08:24:59.463Z,28.66
2022-08-03T08:27:26.610Z,28.62
2022-08-03T08:29:55.745Z,28.66
2022-08-03T08:32:25.892Z,28.79
2022-08-03T08:34:53.308Z,28.46
2022-08-03T08:37:20.289Z,28.10
2022-08-03T08:39:47.246Z,28.56
2022-08-03T08:42:15.865Z,29.02
2022-08-03T08:44:43.061Z,29.05
2022-08-03T08:47:10.512Z,28.60
2022-08-03T08:49:40.345Z,29.08
2022-08-03T08:52:24.866Z,28.84
2022-08-03T08:55:00.557Z,28.58
2022-08-03T08:57:42.769Z,29.17
2022-08-03T09:00:14.811Z,29.27
2022-08-03T09:02:46.512Z,29.23
2022-08-03T09:05:15.634Z,29.18
2022-08-03T09:07:43.866Z,29.34
2022-08-03T09:10:13.958Z,29.33
2022-08-03T09:12:49.475Z,29.40
2022-08-03T09:15:29.348Z,29.32
2022-08-03T09:17:57.963Z,28.99
2022-08-03T09:20:27.800Z,28.67
2022-08-03T09:23:44.501Z,28.77
2022-08-03T09:25:59.996Z,29.12
2022-08-03T09:29:01.756Z,28.96
2022-08-03T09:31:36.375Z,29.24
2022-08-03T09:34:05.968Z,29.22
2022-08-03T09:36:46.885Z,29.08
2022-08-03T09:39:16.887Z,29.33
2022-08-03T09:41:47.118Z,29.04
2022-08-03T09:44:24.267Z,29.08
2022-08-03T09:46:56.359Z,28.85
2022-08-03T09:49:24.535Z,29.83
2022-08-03T09:52:31.805Z,30.06
2022-08-03T09:54:39.515Z,30.47
2022-08-03T09:57:06.786Z,30.70
2022-08-03T09:59:34.694Z,30.61
2022-08-03T10:02:02.066Z,30.50
2022-08-03T10:04:29.261Z,30.75
2022-08-03T10:07:10.645Z,30.93
2022-08-03T10:09:38.375Z,30.72
2022-08-03T10:12:13.258Z,30.81
2022-08-03T10:14:42.294Z,30.42
2022-08-03T10:17:12.837Z,30.79
2022-08-03T10:19:41.429Z,30.77
2022-08-03T10:22:12.554Z,30.51
2022-08-03T10:24:44.717Z,30.42
2022-08-03T10:27:13.527Z,30.56
2022-08-03T10:29:47.543Z,30.63
2022-08-03T10:32:21.595Z,30.38
2022-08-03T10:34:59.959Z,30.35
2022-08-03T10:37:32.457Z,30.11
2022-08-03T10:40:01.575Z,29.67
2022-08-03T10:42:34.911Z,29.42
2022-08-03T10:45:26.879Z,29.26
2022-08-03T10:47:56.223Z,29.55
2022-08-03T10:50:25.256Z,29.34
2022-08-03T10:52:58.798Z,29.45
2022-08-03T10:55:52.112Z,29.53
2022-08-03T10:58:41.505Z,29.72
2022-08-03T11:02:00.823Z,29.72
2022-08-03T11:04:30.145Z,29.63
2022-08-03T11:07:16.777Z,29.85
2022-08-03T11:09:47.713Z,29.78
2022-08-03T11:12:31.234Z,29.81
2022-08-03T11:15:09.164Z,29.84
2022-08-03T11:17:46.623Z,29.95
2022-08-03T11:20:49.437Z,30.17
2022-08-03T11:23:20.173Z,30.08
2022-08-03T11:26:18.194Z,30.07
2022-08-03T11:28:48.633Z,30.02
2022-08-03T11:31:49.807Z,30.25
2022-08-03T11:34:17.910Z,29.95
2022-08-03T11:37:23.545Z,30.31
2022-08-03T11:39:54.807Z,30.26
2022-08-03T11:42:25.084Z,30.42
2022-08-03T11:44:57.436Z,30.00
2022-08-03T11:47:29.361Z,29.91
2022-08-03T11:50:00.456Z,30.23
2022-08-03T11:52:34.030Z,30.09
2022-08-03T11:55:01.967Z,30.18
2022-08-03T11:59:16.990Z,30.20
2022-08-03T12:00:28.392Z,30.26
2022-08-03T12:02:59.880Z,30.35
2022-08-03T12:05:51.175Z,30.47
2022-08-03T12:08:28.189Z,30.59
2022-08-03T12:10:56.789Z,30.56
2022-08-03T12:14:32.971Z,30.59
2022-08-03T12:16:22.058Z,30.67
2022-08-03T12:19:02.195Z,30.97
2022-08-03T12:21:29.914Z,30.77
2022-08-03T12:24:02.074Z,30.20
2022-08-03T12:26:30.138Z,30.45
2022-08-03T12:28:58.520Z,30.22
2022-08-03T12:31:25.816Z,29.65
2022-08-03T12:34:04.474Z,29.89
2022-08-03T12:36:33.607Z,29.29
2022-08-03T12:39:03.413Z,29.50
2022-08-03T12:41:34.737Z,29.34
2022-08-03T12:44:04.120Z,29.33
2022-08-03T12:46:34.763Z,29.30
2022-08-03T12:49:04.739Z,28.50
2022-08-03T12:51:37.621Z,28.74
2022-08-03T12:54:05.774Z,28.93
2022-08-03T12:56:33.212Z,29.10
2022-08-03T12:59:00.333Z,28.41
2022-08-03T13:01:36.439Z,28.62
2022-08-03T13:04:05.610Z,29.01
2022-08-03T13:06:32.796Z,28.96
2022-08-03T13:09:07.701Z,28.82
2022-08-03T13:11:58.985Z,28.85
2022-08-03T13:14:23.751Z,28.51
2022-08-03T13:16:51.343Z,28.28
2022-08-03T13:19:18.399Z,28.72
2022-08-03T13:21:53.477Z,28.27
2022-08-03T13:24:34.171Z,28.61
2022-08-03T13:27:58.909Z,28.23
2022-08-03T13:29:50.697Z,28.65
2022-08-03T13:32:17.666Z,28.53
2022-08-03T13:34:44.689Z,28.55
2022-08-03T13:37:12.312Z,28.22
2022-08-03T13:39:57.475Z,28.32
2022-08-03T13:42:31.215Z,28.39
2022-08-03T13:44:59.116Z,28.05
2022-08-03T13:47:26.913Z,28.03
2022-08-03T13:50:00.802Z,28.41
2022-08-03T13:52:35.161Z,28.24
2022-08-03T13:55:04.813Z,28.30
2022-08-03T13:58:04.185Z,28.30
2022-08-03T14:00:27.412Z,28.32
2022-08-03T14:03:13.265Z,28.21
2022-08-03T14:05:43.189Z,28.06
2022-08-03T14:08:10.811Z,28.13
2022-08-03T14:10:39.823Z,28.11
2022-08-03T14:13:07.183Z,28.10
2022-08-03T14:15:37.599Z,27.99
2022-08-03T14:18:05.543Z,28.09
2022-08-03T14:20:38.717Z,27.96
2022-08-03T14:23:16.444Z,28.10
2022-08-03T14:25:51.870Z,28.07
2022-08-03T14:28:24.453Z,28.01
2022-08-03T14:30:52.937Z,28.01
2022-08-03T14:33:20.520Z,27.58
2022-08-03T14:35:49.122Z,27.80
2022-08-03T14:38:16.305Z,27.95
2022-08-03T14:40:43.645Z,27.68
2022-08-03T14:43:10.885Z,27.58
2022-08-03T14:45:39.279Z,27.85
2022-08-03T14:50:34.332Z,27.84
2022-08-03T14:50:55.282Z,27.78
2022-08-03T14:53:22.619Z,27.71
2022-08-03T14:55:51.810Z,27.38
2022-08-03T14:58:21.820Z,27.73
2022-08-03T15:00:53.152Z,27.63
2022-08-03T15:03:23.743Z,27.26
2022-08-03T15:05:53.049Z,27.57
2022-08-03T15:08:20.879Z,27.47
2022-08-03T15:10:49.229Z,27.27
2022-08-03T15:13:17.664Z,27.30
2022-08-03T15:15:44.745Z,27.58
2022-08-03T15:18:12.102Z,27.56
2022-08-03T15:20:44.844Z,27.59
2022-08-03T15:23:13.123Z,27.37
2022-08-03T15:26:28.461Z,27.61
2022-08-03T15:28:27.149Z,27.60
2022-08-03T15:30:54.169Z,27.18
2022-08-03T15:33:21.167Z,27.39
2022-08-03T15:35:48.320Z,27.37
2022-08-03T15:38:15.806Z,27.49
2022-08-03T15:40:42.787Z,27.05
2022-08-03T15:43:09.870Z,27.42
2022-08-03T15:45:37.355Z,27.30
2022-08-03T15:48:05.861Z,27.43
2022-08-03T15:50:33.174Z,26.70
2022-08-03T15:53:00.190Z,27.32
2022-08-03T15:55:27.353Z,26.51
2022-08-03T15:59:09.577Z,26.94
2022-08-03T16:00:41.615Z,27.48
2022-08-03T16:03:08.710Z,27.08
2022-08-03T16:05:36.172Z,27.05
2022-08-03T16:08:05.541Z,27.23
2022-08-03T16:10:34.439Z,27.11
2022-08-03T16:13:01.460Z,27.16
2022-08-03T16:15:28.669Z,26.71
2022-08-03T16:17:55.707Z,26.91
2022-08-03T16:20:31.261Z,26.58
2022-08-03T16:23:10.702Z,26.85
2022-08-03T16:25:42.678Z,26.36
2022-08-03T16:28:14.118Z,26.86
2022-08-03T16:30:43.936Z,26.68
2022-08-03T16:33:11.914Z,26.70
2022-08-03T16:35:46.566Z,26.64
2022-08-03T16:38:18.331Z,26.71
2022-08-03T16:40:51.638Z,26.31
2022-08-03T16:43:20.463Z,26.63
2022-08-03T16:45:48.019Z,26.38
2022-08-03T16:48:16.012Z,26.39
2022-08-03T16:50:46.784Z,26.46
2022-08-03T16:53:16.565Z,26.48
2022-08-03T16:55:53.581Z,26.35
2022-08-03T16:58:41.075Z,26.32
2022-08-03T17:01:24.314Z,26.02
2022-08-03T17:04:03.674Z,26.03
2022-08-03T17:06:35.606Z,26.35
2022-08-03T17:09:11.553Z,26.01
2022-08-03T17:11:46.564Z,26.28
2022-08-03T17:14:15.432Z,26.28
2022-08-03T17:16:53.002Z,25.81
2022-08-03T17:19:23.500Z,26.17
2022-08-03T17:22:04.592Z,26.25
2022-08-03T17:24:41.226Z,26.06
2022-08-03T17:28:41.690Z,26.08
2022-08-03T17:30:09.448Z,25.67
2022-08-03T17:32:42.494Z,26.01
2022-08-03T17:35:10.998Z,25.85
2022-08-03T17:37:57.606Z,26.06
2022-08-03T17:40:25.302Z,25.64
2022-08-03T17:42:52.974Z,25.99
2022-08-03T17:45:20.639Z,25.86
2022-08-03T17:47:58.008Z,25.92
2022-08-03T17:50:37.298Z,25.23
2022-08-03T17:53:15.292Z,25.48
2022-08-03T17:56:07.693Z,25.36
2022-08-03T17:59:50.670Z,25.81
2022-08-03T18:02:50.058Z,25.65
2022-08-03T18:05:21.986Z,25.71
2022-08-03T18:08:01.690Z,25.70
2022-08-03T18:10:34.237Z,25.68
2022-08-03T18:13:10.917Z,25.62
2022-08-03T18:15:46.231Z,25.59
2022-08-03T18:18:32.841Z,25.65
2022-08-03T18:21:06.761Z,25.35
2022-08-03T18:23:37.931Z,25.64
2022-08-03T18:26:10.702Z,25.62
2022-08-03T18:28:40.786Z,25.50
2022-08-03T18:31:11.647Z,25.49
2022-08-03T18:34:17.446Z,25.50
2022-08-03T18:36:29.954Z,25.25
2022-08-03T18:39:00.135Z,25.48
2022-08-03T18:41:33.478Z,25.55
2022-08-03T18:44:08.046Z,24.90
2022-08-03T18:47:16.811Z,25.51
2022-08-03T18:49:50.186Z,24.96
2022-08-03T18:52:31.058Z,25.31
2022-08-03T18:55:20.788Z,25.34
2022-08-03T18:58:17.995Z,25.31
2022-08-03T19:02:00.004Z,25.20
2022-08-03T19:04:27.947Z,25.17
2022-08-03T19:07:02.940Z,25.18
2022-08-03T19:09:44.982Z,24.80
2022-08-03T19:12:30.716Z,24.66
2022-08-03T19:15:12.786Z,24.81
2022-08-03T19:17:52.829Z,24.72
2022-08-03T19:20:28.468Z,24.96
2022-08-03T19:22:57.409Z,25.01
2022-08-03T19:25:34.616Z,24.94
2022-08-03T19:28:04.089Z,24.84
2022-08-03T19:30:46.515Z,24.93
2022-08-03T19:33:22.782Z,24.52
2022-08-03T19:35:55.022Z,24.87
2022-08-03T19:38:28.767Z,24.73
2022-08-03T19:40:59.852Z,24.76
2022-08-03T19:43:53.040Z,24.79
2022-08-03T19:46:30.178Z,24.56
2022-08-03T19:49:10.639Z,24.55
2022-08-03T19:52:00.561Z,24.59
2022-08-03T19:54:54.038Z,24.63
2022-08-03T19:57:24.676Z,24.44
2022-08-03T19:59:53.889Z,24.43
2022-08-03T20:02:27.249Z,24.38
2022-08-03T20:04:59.958Z,24.29
2022-08-03T20:07:29.080Z,24.37
2022-08-03T20:09:59.722Z,24.13
2022-08-03T20:12:38.582Z,24.31
2022-08-03T20:15:07.657Z,24.13
2022-08-03T20:17:55.321Z,22.80
2022-08-03T20:20:30.078Z,23.67
2022-08-03T20:22:58.904Z,24.02
2022-08-03T20:25:38.469Z,23.59
2022-08-03T20:28:26.828Z,24.04
2022-08-03T20:30:54.338Z,24.04
2022-08-03T20:33:27.978Z,23.99
2022-08-03T20:36:08.439Z,24.16
2022-08-03T20:38:43.553Z,23.90
2022-08-03T20:41:14.242Z,23.87
2022-08-03T20:43:42.037Z,23.84
2022-08-03T20:46:31.033Z,23.82
2022-08-03T20:51:49.854Z,23.33
2022-08-03T20:54:29.222Z,23.78
2022-08-03T20:56:58.323Z,23.64
2022-08-03T20:59:38.538Z,23.71
2022-08-03T21:02:19.331Z,23.01
2022-08-03T21:04:55.596Z,23.08
2022-08-03T21:07:24.078Z,23.02
2022-08-03T21:09:56.093Z,23.61
2022-08-03T21:12:33.849Z,23.54
2022-08-03T21:13:14.253Z,23.84
2022-08-03T21:15:06.599Z,23.37
2022-08-03T21:17:40.817Z,23.19
2022-08-03T21:20:10.403Z,23.46
2022-08-03T21:22:39.457Z,23.41
2022-08-03T21:25:11.038Z,23.37
2022-08-03T21:27:38.339Z,23.30
2022-08-03T21:30:08.453Z,23.22
2022-08-03T21:32:40.244Z,23.10
2022-08-03T21:35:12.518Z,23.11
2022-08-03T21:37:41.742Z,23.07
2022-08-03T21:40:12.227Z,23.18
2022-08-03T21:42:40.709Z,22.22
2022-08-03T21:45:15.181Z,23.14
2022-08-03T21:47:44.451Z,23.12
2022-08-03T21:50:13.474Z,22.69
2022-08-03T21:52:48.222Z,23.08
2022-08-03T21:55:20.558Z,21.75
2022-08-03T21:57:53.585Z,22.57
2022-08-03T22:00:23.374Z,22.84
2022-08-03T22:02:57.143Z,22.93
2022-08-03T22:05:42.484Z,22.88
2022-08-03T22:08:13.454Z,22.44
2022-08-03T22:10:43.825Z,22.44
2022-08-03T22:13:12.990Z,22.87
2022-08-03T22:15:40.486Z,22.78
2022-08-03T22:18:07.581Z,22.27
2022-08-03T22:20:34.727Z,22.71
2022-08-03T22:23:04.827Z,22.27
2022-08-03T22:25:34.729Z,22.68
2022-08-03T22:28:09.431Z,22.65
2022-08-03T22:30:37.715Z,22.56
2022-08-03T22:33:11.536Z,22.57
2022-08-03T22:35:48.178Z,22.48
2022-08-03T22:38:17.754Z,22.60
2022-08-03T22:40:47.128Z,22.16
2022-08-03T22:43:14.217Z,22.37
2022-08-03T22:46:10.662Z,22.06
2022-08-03T22:48:34.466Z,22.46
2022-08-03T22:51:02.854Z,22.22
2022-08-03T22:53:29.978Z,22.43
2022-08-03T22:55:57.499Z,22.35
2022-08-03T22:58:25.199Z,22.22
2022-08-03T23:00:54.017Z,22.42
2022-08-03T23:03:25.955Z,22.41
2022-08-03T23:06:16.499Z,22.06
2022-08-03T23:08:47.819Z,22.33
2022-08-03T23:11:18.093Z,22.31
2022-08-03T23:13:52.283Z,22.29
2022-08-03T23:16:29.089Z,22.28
2022-08-03T23:18:59.561Z,21.60
2022-08-03T23:21:53.960Z,21.71
2022-08-03T23:24:25.967Z,22.15
2022-08-03T23:26:58.319Z,21.57
2022-08-03T23:29:29.136Z,22.08
2022-08-03T23:31:56.768Z,21.63
2022-08-03T23:34:43.583Z,22.06
2022-08-03T23:37:14.018Z,21.88
2022-08-03T23:39:44.800Z,21.87
2022-08-03T23:42:15.179Z,21.50
2022-08-03T23:44:44.639Z,21.86
2022-08-03T23:47:13.251Z,21.65
2022-08-03T23:49:40.290Z,21.67
2022-08-03T23:52:40.528Z,21.69
2022-08-03T23:55:07.650Z,21.78
2022-08-03T23:57:46.931Z,21.75
